createdAt,value
2018-09-15T00:00:59.978Z,90.50
2018-09-15T00:03:28.403Z,90.60
2018-09-15T00:05:56.812Z,90.80
2018-09-15T00:08:25.178Z,90.50
2018-09-15T00:10:53.563Z,90.70
2018-09-15T00:13:22.883Z,91.00
2018-09-15T00:15:51.262Z,91.10
2018-09-15T00:18:19.627Z,91.30
2018-09-15T00:20:47.971Z,91.50
2018-09-15T00:23:16.354Z,91.50
2018-09-15T00:25:44.698Z,91.70
2018-09-15T00:28:13.352Z,91.70
2018-09-15T00:30:42.235Z,91.60
2018-09-15T00:33:10.701Z,91.50
2018-09-15T00:35:39.131Z,91.50
2018-09-15T00:38:07.543Z,91.60
2018-09-15T00:40:35.989Z,91.60
2018-09-15T00:43:04.382Z,91.70
2018-09-15T00:45:32.724Z,91.70
2018-09-15T00:48:01.146Z,91.60
2018-09-15T00:50:29.570Z,91.60
2018-09-15T00:52:57.927Z,91.60
2018-09-15T00:55:26.274Z,91.60
2018-09-15T00:57:54.648Z,91.90
2018-09-15T01:00:23.040Z,92.00
2018-09-15T01:02:51.397Z,92.00
2018-09-15T01:05:19.754Z,92.10
2018-09-15T01:07:48.159Z,92.20
2018-09-15T01:10:16.660Z,92.30
2018-09-15T01:12:45.148Z,92.30
2018-09-15T01:15:13.495Z,92.20
2018-09-15T01:17:41.899Z,92.40
2018-09-15T01:20:10.335Z,92.60
2018-09-15T01:22:39.351Z,92.50
2018-09-15T01:25:07.739Z,92.70
2018-09-15T01:27:36.083Z,92.90
2018-09-15T01:30:04.534Z,92.70
2018-09-15T01:32:32.857Z,92.60
2018-09-15T01:35:01.212Z,92.40
2018-09-15T01:37:29.549Z,92.00
2018-09-15T01:39:57.918Z,92.00
2018-09-15T01:42:26.403Z,92.00
2018-09-15T01:44:54.798Z,91.80
2018-09-15T01:47:23.165Z,91.90
2018-09-15T01:49:51.549Z,92.10
2018-09-15T01:52:19.891Z,91.80
2018-09-15T01:54:48.282Z,91.70
2018-09-15T01:57:16.642Z,91.90
2018-09-15T01:59:44.975Z,92.10
2018-09-15T02:02:13.346Z,92.20
2018-09-15T02:04:41.715Z,92.40
2018-09-15T02:07:10.095Z,92.60
2018-09-15T02:09:38.492Z,92.50
2018-09-15T02:12:06.937Z,92.60
2018-09-15T02:14:35.311Z,92.60
2018-09-15T02:17:03.670Z,92.70
2018-09-15T02:19:32.035Z,92.80
2018-09-15T02:22:00.358Z,92.90
2018-09-15T02:24:28.681Z,92.90
2018-09-15T02:26:57.038Z,93.20
2018-09-15T02:29:25.443Z,93.30
2018-09-15T02:31:53.851Z,93.40
2018-09-15T02:34:22.234Z,93.40
2018-09-15T02:36:50.671Z,93.50
2018-09-15T02:39:19.114Z,93.60
2018-09-15T02:41:47.509Z,93.70
2018-09-15T02:44:15.984Z,93.80
2018-09-15T02:46:44.351Z,94.00
2018-09-15T02:49:12.736Z,94.20
2018-09-15T02:51:41.137Z,94.30
2018-09-15T02:54:09.495Z,94.40
2018-09-15T02:56:37.902Z,94.40
2018-09-15T02:59:06.330Z,94.20
2018-09-15T03:01:34.906Z,94.20
2018-09-15T03:04:03.332Z,94.20
2018-09-15T03:06:31.733Z,94.30
2018-09-15T03:09:00.231Z,94.20
2018-09-15T03:11:28.649Z,94.20
2018-09-15T03:13:57.058Z,94.40
2018-09-15T03:16:25.506Z,94.40
2018-09-15T03:18:54.035Z,94.70
2018-09-15T03:21:22.414Z,94.60
2018-09-15T03:23:50.786Z,94.30
2018-09-15T03:26:19.190Z,94.80
2018-09-15T03:28:47.730Z,94.30
2018-09-15T03:31:16.099Z,93.60
2018-09-15T03:33:44.448Z,93.50
2018-09-15T03:36:12.822Z,92.90
2018-09-15T03:38:41.181Z,92.80
2018-09-15T03:41:09.596Z,92.70
2018-09-15T03:43:37.937Z,92.90
2018-09-15T03:46:06.330Z,93.00
2018-09-15T03:48:34.691Z,93.40
2018-09-15T03:51:03.098Z,93.60
2018-09-15T03:53:31.459Z,93.90
2018-09-15T03:55:59.970Z,94.10
2018-09-15T03:58:28.306Z,94.10
2018-09-15T04:00:56.755Z,94.00
2018-09-15T04:03:25.111Z,93.90
2018-09-15T04:05:53.450Z,94.00
2018-09-15T04:08:22.019Z,94.20
2018-09-15T04:10:50.334Z,94.30
2018-09-15T04:13:18.703Z,94.10
2018-09-15T04:15:47.038Z,94.30
2018-09-15T04:18:17.504Z,94.50
2018-09-15T04:20:47.622Z,94.40
2018-09-15T04:23:16.522Z,94.50
2018-09-15T04:25:45.392Z,94.60
2018-09-15T04:28:13.896Z,94.30
2018-09-15T04:30:42.794Z,94.40
2018-09-15T04:33:11.241Z,94.40
2018-09-15T04:35:40.046Z,94.30
2018-09-15T04:38:08.500Z,94.10
2018-09-15T04:40:37.118Z,94.00
2018-09-15T04:43:05.534Z,94.10
2018-09-15T04:45:33.903Z,94.50
2018-09-15T04:48:02.315Z,95.00
2018-09-15T04:50:30.673Z,95.30
2018-09-15T04:52:59.098Z,95.30
2018-09-15T04:55:27.472Z,95.50
2018-09-15T04:57:56.695Z,95.50
2018-09-15T05:00:25.090Z,95.40
2018-09-15T05:02:53.594Z,95.80
2018-09-15T05:05:21.962Z,95.60
2018-09-15T05:07:50.395Z,95.80
2018-09-15T05:10:18.779Z,96.10
2018-09-15T05:12:47.260Z,96.20
2018-09-15T05:15:15.640Z,96.30
2018-09-15T05:17:44.151Z,96.50
2018-09-15T05:20:12.537Z,96.30
2018-09-15T05:22:40.948Z,96.10
2018-09-15T05:25:09.361Z,95.70
2018-09-15T05:27:37.774Z,96.00
2018-09-15T05:30:06.857Z,96.40
2018-09-15T05:32:35.223Z,96.70
2018-09-15T05:35:03.654Z,96.70
2018-09-15T05:37:31.986Z,96.70
2018-09-15T05:40:00.493Z,96.90
2018-09-15T05:42:28.728Z,96.90
2018-09-15T05:44:57.074Z,96.90
2018-09-15T05:47:25.398Z,96.90
2018-09-15T05:49:53.747Z,96.90
2018-09-15T05:52:22.094Z,96.80
2018-09-15T05:54:50.454Z,96.70
2018-09-15T05:57:18.809Z,96.50
2018-09-15T05:59:47.173Z,96.50
2018-09-15T06:02:15.562Z,96.40
2018-09-15T06:04:43.896Z,96.40
2018-09-15T06:07:12.257Z,96.10
2018-09-15T06:09:40.604Z,96.00
2018-09-15T06:12:08.935Z,95.90
2018-09-15T06:14:37.298Z,95.90
2018-09-15T06:17:05.647Z,95.70
2018-09-15T06:19:33.994Z,95.50
2018-09-15T06:22:02.350Z,95.70
2018-09-15T06:24:30.715Z,95.60
2018-09-15T06:26:59.102Z,95.40
2018-09-15T06:29:27.555Z,95.50
2018-09-15T06:31:56.206Z,95.50
2018-09-15T06:34:24.621Z,95.70
2018-09-15T06:36:53.005Z,95.60
2018-09-15T06:39:21.484Z,95.50
2018-09-15T06:41:49.985Z,95.20
2018-09-15T06:44:18.515Z,95.10
2018-09-15T06:46:46.925Z,95.10
2018-09-15T06:49:15.386Z,95.20
2018-09-15T06:51:44.033Z,95.40
2018-09-15T06:54:12.517Z,95.30
2018-09-15T06:56:41.047Z,95.40
2018-09-15T06:59:10.147Z,95.40
2018-09-15T07:01:39.691Z,95.60
2018-09-15T07:04:10.079Z,95.50
2018-09-15T07:06:38.528Z,95.40
2018-09-15T07:09:09.833Z,95.20
2018-09-15T07:11:38.461Z,94.80
2018-09-15T07:14:07.480Z,94.90
2018-09-15T07:16:35.935Z,94.20
2018-09-15T07:19:04.686Z,94.30
2018-09-15T07:21:33.111Z,94.20
2018-09-15T07:24:01.572Z,93.90
2018-09-15T07:26:30.378Z,93.70
2018-09-15T07:28:58.890Z,93.50
2018-09-15T07:31:27.350Z,93.30
2018-09-15T07:33:56.590Z,93.30
2018-09-15T07:36:25.019Z,93.00
2018-09-15T07:38:53.477Z,92.80
2018-09-15T07:41:21.909Z,92.70
2018-09-15T07:43:50.363Z,92.40
2018-09-15T07:46:18.836Z,92.10
2018-09-15T07:48:47.261Z,91.70
2018-09-15T07:51:15.723Z,91.40
2018-09-15T07:53:44.135Z,91.00
2018-09-15T07:56:12.570Z,91.60
2018-09-15T07:58:41.064Z,91.50
2018-09-15T08:01:09.531Z,91.00
2018-09-15T08:03:38.114Z,90.90
2018-09-15T08:06:06.514Z,90.20
2018-09-15T08:08:34.954Z,90.00
2018-09-15T08:11:03.436Z,89.00
2018-09-15T08:13:31.899Z,91.60
2018-09-15T08:16:00.326Z,91.70
2018-09-15T08:18:28.816Z,87.10
2018-09-15T08:20:57.252Z,87.60
2018-09-15T08:23:25.671Z,87.70
2018-09-15T08:25:54.135Z,86.50
2018-09-15T08:28:22.537Z,86.00
2018-09-15T08:30:50.928Z,82.20
2018-09-15T08:33:19.411Z,84.70
2018-09-15T08:35:47.838Z,84.40
2018-09-15T08:38:16.299Z,83.30
2018-09-15T08:40:44.835Z,81.30
2018-09-15T08:43:13.338Z,79.70
2018-09-15T08:45:43.182Z,78.20
2018-09-15T08:48:11.611Z,80.00
2018-09-15T08:50:40.163Z,81.90
2018-09-15T08:53:08.571Z,77.90
2018-09-15T08:55:37.349Z,79.50
2018-09-15T08:58:06.026Z,78.40
2018-09-15T09:00:34.520Z,81.10
2018-09-15T09:03:02.934Z,75.00
2018-09-15T09:05:31.344Z,77.80
2018-09-15T09:07:59.769Z,76.80
2018-09-15T09:10:28.217Z,71.70
2018-09-15T09:12:56.670Z,73.40
2018-09-15T09:15:25.078Z,74.40
2018-09-15T09:17:53.520Z,79.70
2018-09-15T09:20:21.930Z,75.70
2018-09-15T09:22:50.351Z,76.00
2018-09-15T09:25:18.777Z,76.50
2018-09-15T09:27:47.245Z,74.20
2018-09-15T09:30:15.684Z,78.50
2018-09-15T09:32:44.022Z,76.20
2018-09-15T09:35:12.687Z,76.40
2018-09-15T09:37:41.093Z,77.20
2018-09-15T09:40:09.707Z,77.80
2018-09-15T09:42:38.119Z,74.80
2018-09-15T09:45:07.724Z,75.00
2018-09-15T09:47:36.074Z,71.50
2018-09-15T09:50:04.472Z,72.60
2018-09-15T09:52:32.867Z,72.80
2018-09-15T09:55:01.271Z,77.30
2018-09-15T09:57:29.666Z,72.90
2018-09-15T09:59:58.085Z,68.50
2018-09-15T10:02:26.523Z,69.80
2018-09-15T10:04:54.894Z,70.80
2018-09-15T10:07:23.274Z,72.30
2018-09-15T10:09:51.687Z,69.30
2018-09-15T10:12:20.221Z,66.90
2018-09-15T10:14:48.981Z,68.60
2018-09-15T10:17:17.453Z,69.20
2018-09-15T10:19:45.832Z,68.90
2018-09-15T10:22:14.167Z,68.90
2018-09-15T10:24:42.553Z,71.00
2018-09-15T10:27:10.921Z,61.30
2018-09-15T10:29:39.367Z,66.00
2018-09-15T10:32:07.892Z,65.40
2018-09-15T10:34:36.253Z,65.60
2018-09-15T10:37:04.683Z,66.20
2018-09-15T10:39:33.113Z,67.00
2018-09-15T10:42:01.521Z,67.70
2018-09-15T10:44:29.949Z,69.30
2018-09-15T10:46:58.445Z,70.70
2018-09-15T10:49:26.833Z,70.10
2018-09-15T10:51:55.242Z,66.30
2018-09-15T10:54:23.629Z,65.00
2018-09-15T10:56:52.114Z,64.80
2018-09-15T10:59:20.491Z,65.70
2018-09-15T11:01:48.978Z,64.10
2018-09-15T11:04:17.510Z,64.70
2018-09-15T11:06:46.011Z,63.00
2018-09-15T11:09:14.457Z,62.60
2018-09-15T11:11:42.889Z,62.40
2018-09-15T11:14:11.254Z,63.20
2018-09-15T11:16:39.735Z,63.80
2018-09-15T11:19:08.180Z,64.70
2018-09-15T11:21:36.579Z,64.90
2018-09-15T11:24:04.999Z,64.90
2018-09-15T11:26:33.430Z,68.00
2018-09-15T11:29:01.871Z,67.20
2018-09-15T11:31:30.178Z,65.20
2018-09-15T11:33:58.575Z,64.10
2018-09-15T11:36:26.958Z,64.10
2018-09-15T11:38:55.307Z,60.20
2018-09-15T11:41:23.768Z,60.20
2018-09-15T11:43:52.134Z,59.60
2018-09-15T11:46:20.518Z,59.90
2018-09-15T11:48:48.873Z,59.10
2018-09-15T11:51:17.359Z,59.20
2018-09-15T11:53:45.896Z,61.10
2018-09-15T11:56:14.267Z,61.30
2018-09-15T11:58:42.673Z,56.20
2018-09-15T12:01:11.205Z,55.70
2018-09-15T12:03:39.627Z,56.90
2018-09-15T12:06:08.301Z,56.30
2018-09-15T12:08:36.818Z,57.00
2018-09-15T12:11:05.218Z,57.20
2018-09-15T12:13:33.692Z,61.00
2018-09-15T12:16:02.027Z,59.30
2018-09-15T12:18:30.452Z,60.70
2018-09-15T12:20:58.801Z,61.90
2018-09-15T12:23:27.387Z,61.10
2018-09-15T12:25:55.882Z,61.90
2018-09-15T12:28:24.403Z,60.40
2018-09-15T12:30:53.002Z,62.70
2018-09-15T12:33:21.624Z,60.80
2018-09-15T12:35:50.361Z,64.10
2018-09-15T12:38:18.777Z,59.70
2018-09-15T12:40:47.368Z,59.60
2018-09-15T12:43:15.887Z,59.30
2018-09-15T12:45:44.316Z,60.60
2018-09-15T12:48:13.828Z,59.40
2018-09-15T12:50:42.237Z,58.60
2018-09-15T12:53:10.690Z,58.80
2018-09-15T12:55:39.098Z,54.60
2018-09-15T12:58:08.737Z,53.60
2018-09-15T13:00:37.134Z,51.30
2018-09-15T13:03:05.868Z,56.50
2018-09-15T13:05:34.259Z,51.10
2018-09-15T13:08:02.686Z,51.10
2018-09-15T13:10:31.302Z,52.60
2018-09-15T13:13:00.006Z,54.70
2018-09-15T13:15:28.470Z,56.60
2018-09-15T13:17:56.975Z,56.80
2018-09-15T13:20:25.406Z,56.20
2018-09-15T13:22:53.926Z,54.70
2018-09-15T13:25:22.381Z,54.30
2018-09-15T13:27:50.881Z,53.80
2018-09-15T13:30:19.297Z,51.70
2018-09-15T13:32:47.711Z,49.00
2018-09-15T13:35:16.116Z,48.10
2018-09-15T13:37:44.644Z,49.30
2018-09-15T13:40:13.125Z,49.70
2018-09-15T13:42:41.608Z,47.50
2018-09-15T13:45:10.002Z,48.10
2018-09-15T13:47:38.396Z,48.10
2018-09-15T13:50:07.164Z,47.90
2018-09-15T13:52:35.632Z,48.00
2018-09-15T13:55:04.066Z,47.80
2018-09-15T13:57:32.477Z,47.20
2018-09-15T14:00:00.911Z,47.50
2018-09-15T14:02:29.351Z,46.50
2018-09-15T14:04:57.892Z,45.00
2018-09-15T14:07:26.271Z,44.20
2018-09-15T14:09:54.750Z,43.30
2018-09-15T14:12:23.180Z,42.20
2018-09-15T14:14:51.701Z,39.90
2018-09-15T14:17:20.291Z,40.70
2018-09-15T14:19:48.655Z,42.40
2018-09-15T14:22:17.151Z,44.10
2018-09-15T14:24:45.459Z,46.10
2018-09-15T14:27:13.818Z,45.90
2018-09-15T14:29:42.283Z,44.50
2018-09-15T14:32:10.791Z,43.00
2018-09-15T14:34:39.205Z,41.60
2018-09-15T14:37:07.543Z,40.60
2018-09-15T14:39:36.325Z,39.50
2018-09-15T14:42:05.278Z,40.00
2018-09-15T14:44:34.029Z,40.60
2018-09-15T14:47:02.582Z,43.10
2018-09-15T14:49:30.987Z,42.70
2018-09-15T14:51:59.582Z,43.50
2018-09-15T14:54:28.172Z,44.70
2018-09-15T14:56:56.892Z,46.90
2018-09-15T14:59:25.352Z,46.90
2018-09-15T15:01:54.184Z,45.20
2018-09-15T15:04:22.781Z,42.40
2018-09-15T15:06:51.447Z,39.60
2018-09-15T15:09:19.826Z,39.50
2018-09-15T15:11:48.277Z,39.10
2018-09-15T15:14:16.737Z,39.70
2018-09-15T15:16:48.959Z,40.00
2018-09-15T15:19:17.358Z,40.20
2018-09-15T15:21:45.819Z,40.80
2018-09-15T15:24:14.191Z,39.50
2018-09-15T15:26:42.559Z,39.00
2018-09-15T15:29:10.970Z,38.50
2018-09-15T15:31:39.502Z,39.30
2018-09-15T15:34:07.883Z,37.00
2018-09-15T15:36:36.382Z,34.80
2018-09-15T15:39:06.478Z,34.40
2018-09-15T15:41:34.894Z,33.60
2018-09-15T15:44:03.651Z,33.60
2018-09-15T15:46:32.113Z,32.40
2018-09-15T15:49:01.214Z,32.50
2018-09-15T15:51:29.670Z,32.80
2018-09-15T15:53:57.992Z,31.40
2018-09-15T15:56:26.862Z,30.70
2018-09-15T15:58:55.350Z,31.70
2018-09-15T16:01:23.669Z,32.10
2018-09-15T16:03:52.503Z,33.80
2018-09-15T16:06:20.933Z,34.70
2018-09-15T16:08:50.051Z,32.60
2018-09-15T16:11:18.594Z,31.30
2018-09-15T16:13:46.932Z,31.20
2018-09-15T16:16:15.302Z,32.10
2018-09-15T16:18:44.299Z,34.60
2018-09-15T16:21:12.766Z,37.30
2018-09-15T16:23:41.158Z,38.70
2018-09-15T16:26:09.615Z,39.90
2018-09-15T16:28:38.071Z,40.40
2018-09-15T16:31:06.554Z,37.90
2018-09-15T16:33:35.016Z,36.30
2018-09-15T16:36:03.492Z,35.10
2018-09-15T16:38:32.069Z,35.20
2018-09-15T16:41:00.515Z,35.70
2018-09-15T16:43:28.961Z,37.50
2018-09-15T16:45:57.378Z,38.60
2018-09-15T16:48:25.799Z,38.60
2018-09-15T16:50:54.286Z,39.90
2018-09-15T16:53:22.677Z,38.30
2018-09-15T16:55:51.096Z,37.40
2018-09-15T16:58:20.174Z,38.60
2018-09-15T17:00:48.593Z,37.70
2018-09-15T17:03:17.086Z,39.00
2018-09-15T17:05:45.806Z,40.80
2018-09-15T17:08:14.995Z,41.40
2018-09-15T17:10:43.665Z,42.50
2018-09-15T17:13:12.031Z,42.10
2018-09-15T17:15:40.569Z,41.00
2018-09-15T17:18:09.004Z,41.40
2018-09-15T17:20:37.419Z,43.10
2018-09-15T17:23:06.668Z,44.70
2018-09-15T17:25:35.082Z,46.00
2018-09-15T17:28:03.461Z,46.70
2018-09-15T17:30:31.871Z,48.30
2018-09-15T17:33:00.554Z,49.00
2018-09-15T17:35:28.946Z,49.90
2018-09-15T17:37:57.432Z,50.30
2018-09-15T17:40:25.855Z,50.80
2018-09-15T17:42:54.216Z,51.00
2018-09-15T17:45:22.755Z,51.60
2018-09-15T17:47:51.128Z,52.20
2018-09-15T17:50:19.523Z,52.40
2018-09-15T17:52:48.418Z,53.20
2018-09-15T17:55:16.916Z,53.10
2018-09-15T17:57:45.319Z,53.60
2018-09-15T18:00:13.705Z,54.10
2018-09-15T18:02:42.058Z,53.90
2018-09-15T18:05:10.563Z,54.60
2018-09-15T18:07:39.052Z,54.80
2018-09-15T18:10:07.611Z,55.00
2018-09-15T18:12:36.050Z,55.00
2018-09-15T18:15:04.495Z,55.20
2018-09-15T18:17:33.201Z,55.40
2018-09-15T18:20:01.654Z,55.70
2018-09-15T18:22:30.124Z,55.80
2018-09-15T18:24:58.614Z,55.90
2018-09-15T18:27:26.970Z,56.10
2018-09-15T18:29:55.706Z,56.50
2018-09-15T18:32:24.086Z,56.40
2018-09-15T18:34:52.551Z,56.50
2018-09-15T18:37:21.030Z,56.70
2018-09-15T18:39:49.459Z,56.80
2018-09-15T18:42:17.970Z,57.10
2018-09-15T18:44:46.388Z,57.00
2018-09-15T18:47:14.871Z,57.20
2018-09-15T18:49:43.339Z,57.70
2018-09-15T18:52:11.862Z,58.00
2018-09-15T18:54:40.448Z,58.30
2018-09-15T18:57:09.123Z,58.70
2018-09-15T18:59:38.126Z,58.70
2018-09-15T19:02:06.675Z,59.30
2018-09-15T19:04:35.137Z,59.20
2018-09-15T19:07:03.765Z,59.40
2018-09-15T19:09:32.257Z,59.70
2018-09-15T19:12:00.715Z,60.20
2018-09-15T19:14:29.223Z,60.20
2018-09-15T19:16:57.743Z,61.10
2018-09-15T19:19:26.239Z,61.20
2018-09-15T19:21:54.762Z,61.80
2018-09-15T19:24:23.396Z,62.50
2018-09-15T19:26:52.140Z,63.00
2018-09-15T19:29:20.724Z,63.50
2018-09-15T19:32:22.695Z,63.40
2018-09-15T19:34:58.780Z,63.60
2018-09-15T19:37:39.815Z,64.30
2018-09-15T19:40:21.079Z,64.60
2018-09-15T19:43:06.424Z,65.40
2018-09-15T19:48:45.877Z,66.70
2018-09-15T19:51:34.555Z,66.80
2018-09-15T19:54:08.089Z,67.00
2018-09-15T19:56:45.275Z,67.30
2018-09-15T19:59:21.555Z,67.40
2018-09-15T20:01:56.265Z,67.70
2018-09-15T20:04:27.828Z,68.40
2018-09-15T20:06:58.757Z,68.50
2018-09-15T20:09:30.829Z,69.40
2018-09-15T20:12:01.523Z,69.60
2018-09-15T20:14:32.995Z,69.80
2018-09-15T20:17:03.791Z,70.60
2018-09-15T20:19:39.598Z,70.80
2018-09-15T20:22:18.319Z,71.30
2018-09-15T20:24:52.630Z,71.40
2018-09-15T20:27:27.619Z,72.50
2018-09-15T20:30:02.503Z,72.40
2018-09-15T20:32:38.809Z,72.60
2018-09-15T20:35:07.289Z,72.80
2018-09-15T20:37:36.095Z,73.80
2018-09-15T20:40:04.589Z,74.30
2018-09-15T20:42:33.148Z,74.10
2018-09-15T20:45:01.538Z,74.50
2018-09-15T20:47:30.217Z,74.80
2018-09-15T20:49:58.675Z,74.10
2018-09-15T20:52:27.212Z,74.50
2018-09-15T20:54:55.842Z,74.60
2018-09-15T20:57:24.395Z,74.60
2018-09-15T20:59:52.944Z,75.00
2018-09-15T21:02:21.388Z,75.50
2018-09-15T21:04:49.849Z,76.00
2018-09-15T21:07:18.246Z,75.60
2018-09-15T21:09:46.656Z,76.50
2018-09-15T21:12:15.032Z,76.80
2018-09-15T21:14:43.527Z,77.60
2018-09-15T21:17:12.292Z,78.20
2018-09-15T21:19:40.747Z,78.00
2018-09-15T21:22:09.144Z,77.90
2018-09-15T21:24:37.590Z,78.50
2018-09-15T21:27:06.204Z,77.90
2018-09-15T21:29:34.657Z,78.40
2018-09-15T21:32:03.125Z,78.30
2018-09-15T21:34:31.529Z,78.20
2018-09-15T21:37:00.019Z,78.60
2018-09-15T21:39:28.511Z,78.10
2018-09-15T21:41:56.951Z,78.50
2018-09-15T21:44:25.404Z,78.80
2018-09-15T21:46:53.862Z,79.50
2018-09-15T21:49:22.374Z,80.10
2018-09-15T21:51:50.938Z,80.70
2018-09-15T21:54:19.392Z,81.60
2018-09-15T21:56:48.000Z,81.80
2018-09-15T21:59:16.557Z,81.90
2018-09-15T22:01:44.998Z,82.70
2018-09-15T22:04:19.223Z,83.30
2018-09-15T22:06:48.427Z,83.00
2018-09-15T22:09:17.032Z,84.20
2018-09-15T22:11:45.447Z,83.60
2018-09-15T22:14:13.865Z,83.60
2018-09-15T22:16:42.790Z,83.80
2018-09-15T22:19:11.258Z,83.70
2018-09-15T22:21:39.703Z,84.20
2018-09-15T22:24:08.531Z,84.10
2018-09-15T22:26:37.055Z,84.30
2018-09-15T22:29:05.699Z,84.90
2018-09-15T22:31:35.697Z,84.50
2018-09-15T22:34:04.249Z,85.20
2018-09-15T22:36:32.645Z,85.30
2018-09-15T22:39:01.141Z,85.60
2018-09-15T22:41:29.591Z,85.90
2018-09-15T22:43:57.995Z,85.80
2018-09-15T22:46:26.406Z,86.50
2018-09-15T22:48:54.802Z,86.50
2018-09-15T22:51:23.323Z,86.60
2018-09-15T22:53:51.720Z,86.60
2018-09-15T22:56:20.171Z,87.30
2018-09-15T22:58:48.600Z,88.00
2018-09-15T23:01:17.083Z,88.70
2018-09-15T23:03:45.494Z,88.50
2018-09-15T23:06:13.915Z,89.00
2018-09-15T23:08:42.618Z,88.90
2018-09-15T23:11:11.114Z,88.90
2018-09-15T23:13:39.529Z,88.90
2018-09-15T23:16:08.019Z,90.00
2018-09-15T23:18:36.523Z,89.60
2018-09-15T23:21:05.014Z,90.00
2018-09-15T23:23:33.523Z,90.10
2018-09-15T23:26:01.925Z,89.90
2018-09-15T23:28:30.354Z,90.00
2018-09-15T23:30:58.771Z,90.10
2018-09-15T23:33:27.323Z,90.20
2018-09-15T23:35:55.727Z,90.20
2018-09-15T23:38:24.169Z,90.10
2018-09-15T23:40:52.540Z,89.60
2018-09-15T23:43:20.950Z,89.80
2018-09-15T23:45:49.403Z,90.00
2018-09-15T23:48:17.862Z,89.70
2018-09-15T23:50:46.269Z,89.60
2018-09-15T23:53:14.661Z,90.10
2018-09-15T23:55:43.045Z,89.70
2018-09-15T23:58:11.479Z,89.60
